createdAt,value
2022-08-21T00:00:44.237Z,12.77
2022-08-21T00:03:12.372Z,12.62
2022-08-21T00:05:42.254Z,12.51
2022-08-21T00:08:10.208Z,12.45
2022-08-21T00:10:36.814Z,12.49
2022-08-21T00:13:06.327Z,12.40
2022-08-21T00:15:35.022Z,12.41
2022-08-21T00:18:02.145Z,12.48
2022-08-21T00:20:29.525Z,12.47
2022-08-21T00:22:56.085Z,12.56
2022-08-21T00:25:26.155Z,12.44
2022-08-21T00:27:53.190Z,12.43
2022-08-21T00:30:23.247Z,12.46
2022-08-21T00:32:51.346Z,12.46
2022-08-21T00:35:21.265Z,12.50
2022-08-21T00:37:47.792Z,12.53
2022-08-21T00:40:18.315Z,12.55
2022-08-21T00:42:53.194Z,12.53
2022-08-21T00:45:22.769Z,12.49
2022-08-21T00:47:50.892Z,12.48
2022-08-21T00:50:21.607Z,12.45
2022-08-21T00:52:50.742Z,12.42
2022-08-21T00:55:17.738Z,12.39
2022-08-21T00:57:50.402Z,12.40
2022-08-21T01:00:22.508Z,12.40
2022-08-21T01:02:49.044Z,12.37
2022-08-21T01:05:15.992Z,12.36
2022-08-21T01:07:43.203Z,12.37
2022-08-21T01:10:13.987Z,12.35
2022-08-21T01:12:52.936Z,12.34
2022-08-21T01:15:22.680Z,12.35
2022-08-21T01:17:50.485Z,12.39
2022-08-21T01:20:17.951Z,12.41
2022-08-21T01:22:44.529Z,12.37
2022-08-21T01:25:13.258Z,12.33
2022-08-21T01:27:40.049Z,12.40
2022-08-21T01:30:16.976Z,12.42
2022-08-21T01:32:44.233Z,12.40
2022-08-21T01:35:13.995Z,12.42
2022-08-21T01:37:40.872Z,12.44
2022-08-21T01:40:09.978Z,12.43
2022-08-21T01:42:38.124Z,12.44
2022-08-21T01:45:06.870Z,12.41
2022-08-21T01:47:33.908Z,12.40
2022-08-21T01:50:01.020Z,12.44
2022-08-21T01:52:27.886Z,12.44
2022-08-21T01:54:55.695Z,12.47
2022-08-21T01:57:22.870Z,12.44
2022-08-21T01:59:53.133Z,12.47
2022-08-21T02:02:19.941Z,12.52
2022-08-21T02:04:46.507Z,12.54
2022-08-21T02:07:13.305Z,12.54
2022-08-21T02:09:40.140Z,12.55
2022-08-21T02:12:07.092Z,12.53
2022-08-21T02:14:33.668Z,12.50
2022-08-21T02:17:08.858Z,12.46
2022-08-21T02:19:37.856Z,12.49
2022-08-21T02:22:09.735Z,12.50
2022-08-21T02:24:53.715Z,12.52
2022-08-21T02:27:26.846Z,12.46
2022-08-21T02:29:58.323Z,12.46
2022-08-21T02:32:25.356Z,12.43
2022-08-21T02:34:52.008Z,12.44
2022-08-21T02:37:18.565Z,12.41
2022-08-21T02:39:45.190Z,12.38
2022-08-21T02:42:11.780Z,12.37
2022-08-21T02:44:38.314Z,12.37
2022-08-21T02:47:05.249Z,12.35
2022-08-21T02:49:31.767Z,12.36
2022-08-21T02:51:58.362Z,12.36
2022-08-21T02:54:25.101Z,12.31
2022-08-21T02:56:51.591Z,12.35
2022-08-21T02:59:18.189Z,12.32
2022-08-21T03:01:45.366Z,12.32
2022-08-21T03:04:11.968Z,12.31
2022-08-21T03:06:38.479Z,12.29
2022-08-21T03:09:05.154Z,12.27
2022-08-21T03:11:31.685Z,12.25
2022-08-21T03:13:58.233Z,12.21
2022-08-21T03:16:24.755Z,12.17
2022-08-21T03:18:51.298Z,12.15
2022-08-21T03:21:19.893Z,12.13
2022-08-21T03:23:46.775Z,12.09
2022-08-21T03:26:13.489Z,12.06
2022-08-21T03:28:40.774Z,12.05
2022-08-21T03:31:07.376Z,12.04
2022-08-21T03:33:33.974Z,11.96
2022-08-21T03:36:07.067Z,11.85
2022-08-21T03:38:35.222Z,11.89
2022-08-21T03:41:02.541Z,11.79
2022-08-21T03:43:31.093Z,11.87
2022-08-21T03:46:00.939Z,11.88
2022-08-21T03:48:27.561Z,11.86
2022-08-21T03:50:54.555Z,11.80
2022-08-21T03:53:21.808Z,11.77
2022-08-21T03:55:50.405Z,11.74
2022-08-21T03:58:19.457Z,11.72
2022-08-21T04:00:48.392Z,11.69
2022-08-21T04:03:15.167Z,11.66
2022-08-21T04:05:42.075Z,11.68
2022-08-21T04:08:08.778Z,11.76
2022-08-21T04:10:37.711Z,11.89
2022-08-21T04:13:05.497Z,11.84
2022-08-21T04:15:32.020Z,11.83
2022-08-21T04:17:58.841Z,11.93
2022-08-21T04:20:26.393Z,12.01
2022-08-21T04:22:53.432Z,12.03
2022-08-21T04:25:22.729Z,12.14
2022-08-21T04:27:49.268Z,12.18
2022-08-21T04:30:17.027Z,12.25
2022-08-21T04:32:49.991Z,12.31
2022-08-21T04:35:19.343Z,12.32
2022-08-21T04:37:45.877Z,12.23
2022-08-21T04:40:14.402Z,12.33
2022-08-21T04:42:50.651Z,12.40
2022-08-21T04:45:29.947Z,12.46
2022-08-21T04:47:59.257Z,12.53
2022-08-21T04:50:40.468Z,12.47
2022-08-21T04:53:11.317Z,12.59
2022-08-21T04:55:38.909Z,12.69
2022-08-21T04:58:10.299Z,12.77
2022-08-21T05:00:37.991Z,12.87
2022-08-21T05:03:07.664Z,12.88
2022-08-21T05:05:35.448Z,12.92
2022-08-21T05:08:04.118Z,13.00
2022-08-21T05:10:32.643Z,13.07
2022-08-21T05:12:59.944Z,13.14
2022-08-21T05:15:26.700Z,13.26
2022-08-21T05:18:00.566Z,13.43
2022-08-21T05:20:28.348Z,13.51
2022-08-21T05:22:55.050Z,13.54
2022-08-21T05:25:23.842Z,13.62
2022-08-21T05:27:52.252Z,13.72
2022-08-21T05:30:20.228Z,13.72
2022-08-21T05:32:47.331Z,13.77
2022-08-21T05:35:14.712Z,13.86
2022-08-21T05:37:41.383Z,13.90
2022-08-21T05:40:21.350Z,13.98
2022-08-21T05:42:55.362Z,14.01
2022-08-21T05:45:42.159Z,14.17
2022-08-21T05:48:20.902Z,14.21
2022-08-21T05:50:49.175Z,14.32
2022-08-21T05:53:17.296Z,14.39
2022-08-21T05:55:46.533Z,14.46
2022-08-21T05:58:18.611Z,14.55
2022-08-21T06:00:48.491Z,14.63
2022-08-21T06:03:22.292Z,14.77
2022-08-21T06:05:49.407Z,14.89
2022-08-21T06:08:17.979Z,15.02
2022-08-21T06:10:46.241Z,15.12
2022-08-21T06:13:13.656Z,15.20
2022-08-21T06:15:40.776Z,15.37
2022-08-21T06:18:07.914Z,15.49
2022-08-21T06:20:35.303Z,15.56
2022-08-21T06:23:02.427Z,15.54
2022-08-21T06:25:30.081Z,15.61
2022-08-21T06:28:07.662Z,15.65
2022-08-21T06:30:37.057Z,15.61
2022-08-21T06:33:08.207Z,15.60
2022-08-21T06:35:35.966Z,15.60
2022-08-21T06:38:03.091Z,15.55
2022-08-21T06:40:34.230Z,15.52
2022-08-21T06:43:15.447Z,15.50
2022-08-21T06:45:42.310Z,15.54
2022-08-21T06:48:08.909Z,15.65
2022-08-21T06:50:35.920Z,15.76
2022-08-21T06:53:07.661Z,15.90
2022-08-21T06:55:34.854Z,16.06
2022-08-21T06:58:01.857Z,16.25
2022-08-21T07:00:28.525Z,16.42
2022-08-21T07:02:55.516Z,16.62
2022-08-21T07:05:23.102Z,16.72
2022-08-21T07:07:49.665Z,16.93
2022-08-21T07:10:22.378Z,17.10
2022-08-21T07:12:49.965Z,17.15
2022-08-21T07:15:18.296Z,17.23
2022-08-21T07:17:45.015Z,17.34
2022-08-21T07:20:13.364Z,17.50
2022-08-21T07:22:42.335Z,17.66
2022-08-21T07:25:09.401Z,17.81
2022-08-21T07:27:36.137Z,17.90
2022-08-21T07:30:03.775Z,17.97
2022-08-21T07:32:30.491Z,18.14
2022-08-21T07:34:57.559Z,18.11
2022-08-21T07:37:24.115Z,18.16
2022-08-21T07:39:52.141Z,18.32
2022-08-21T07:42:19.035Z,18.42
2022-08-21T07:44:45.631Z,18.34
2022-08-21T07:47:12.195Z,18.54
2022-08-21T07:49:38.862Z,18.67
2022-08-21T07:52:05.459Z,18.73
2022-08-21T07:54:33.864Z,18.86
2022-08-21T07:57:02.052Z,18.89
2022-08-21T07:59:28.867Z,18.85
2022-08-21T08:01:55.807Z,18.99
2022-08-21T08:04:26.337Z,19.13
2022-08-21T08:06:53.677Z,19.28
2022-08-21T08:09:20.980Z,19.25
2022-08-21T08:11:47.552Z,19.41
2022-08-21T08:14:14.099Z,19.43
2022-08-21T08:16:40.691Z,19.54
2022-08-21T08:19:07.295Z,19.66
2022-08-21T08:21:34.679Z,19.69
2022-08-21T08:24:01.544Z,19.87
2022-08-21T08:26:46.223Z,20.01
2022-08-21T08:29:20.568Z,20.08
2022-08-21T08:31:47.068Z,20.10
2022-08-21T08:34:25.077Z,20.12
2022-08-21T08:36:52.789Z,20.28
2022-08-21T08:39:26.433Z,20.33
2022-08-21T08:42:02.997Z,20.36
2022-08-21T08:44:51.411Z,20.35
2022-08-21T08:47:19.708Z,20.57
2022-08-21T08:50:01.484Z,20.70
2022-08-21T08:52:35.274Z,20.81
2022-08-21T08:55:05.605Z,20.86
2022-08-21T08:57:33.456Z,20.91
2022-08-21T09:00:04.942Z,21.00
2022-08-21T09:02:34.545Z,21.01
2022-08-21T09:05:02.146Z,21.13
2022-08-21T09:07:35.420Z,21.17
2022-08-21T09:10:13.363Z,21.22
2022-08-21T09:13:08.118Z,21.21
2022-08-21T09:15:48.051Z,21.30
2022-08-21T09:18:36.365Z,21.38
2022-08-21T09:21:42.055Z,21.49
2022-08-21T09:24:19.668Z,21.57
2022-08-21T09:27:07.154Z,21.77
2022-08-21T09:29:38.301Z,21.80
2022-08-21T09:32:37.757Z,21.70
2022-08-21T09:35:17.769Z,21.89
2022-08-21T09:37:50.208Z,21.70
2022-08-21T09:40:28.820Z,22.01
2022-08-21T09:43:20.276Z,22.10
2022-08-21T09:45:49.030Z,22.39
2022-08-21T09:48:26.173Z,22.53
2022-08-21T09:50:54.784Z,22.43
2022-08-21T09:53:25.438Z,22.43
2022-08-21T09:56:17.251Z,22.37
2022-08-21T09:58:49.813Z,22.49
2022-08-21T10:01:23.267Z,22.61
2022-08-21T10:04:02.441Z,22.65
2022-08-21T10:06:29.584Z,22.62
2022-08-21T10:09:05.194Z,22.67
2022-08-21T10:11:33.000Z,22.90
2022-08-21T10:14:30.473Z,22.96
2022-08-21T10:17:22.491Z,23.06
2022-08-21T10:20:01.216Z,23.26
2022-08-21T10:23:03.441Z,23.40
2022-08-21T10:25:38.966Z,23.37
2022-08-21T10:28:23.109Z,23.72
2022-08-21T10:30:52.092Z,23.66
2022-08-21T10:33:21.478Z,23.86
2022-08-21T10:36:21.372Z,23.99
2022-08-21T10:39:23.299Z,23.90
2022-08-21T10:42:00.003Z,24.00
2022-08-21T10:44:48.261Z,23.85
2022-08-21T10:47:34.971Z,23.83
2022-08-21T10:50:13.685Z,23.62
2022-08-21T10:52:57.569Z,23.26
2022-08-21T10:55:31.423Z,23.14
2022-08-21T10:58:11.521Z,23.09
2022-08-21T11:00:43.850Z,22.96
2022-08-21T11:03:22.597Z,22.73
2022-08-21T11:05:54.331Z,23.07
2022-08-21T11:08:30.314Z,22.96
2022-08-21T11:11:06.592Z,23.02
2022-08-21T11:13:52.931Z,23.27
2022-08-21T11:16:42.747Z,23.45
2022-08-21T11:19:20.340Z,23.72
2022-08-21T11:21:47.615Z,23.88
2022-08-21T11:24:22.970Z,24.06
2022-08-21T11:27:27.727Z,24.23
2022-08-21T11:30:00.242Z,24.43
2022-08-21T11:32:51.462Z,24.61
2022-08-21T11:35:44.686Z,24.73
2022-08-21T11:38:35.934Z,24.19
2022-08-21T11:41:30.538Z,23.97
2022-08-21T11:44:06.099Z,23.78
2022-08-21T11:46:48.445Z,23.33
2022-08-21T11:49:50.055Z,23.32
2022-08-21T11:52:23.563Z,23.28
2022-08-21T11:54:55.238Z,23.54
2022-08-21T11:57:28.713Z,23.73
2022-08-21T12:00:14.577Z,23.73
2022-08-21T12:02:48.803Z,23.72
2022-08-21T12:05:41.921Z,24.03
2022-08-21T12:08:30.676Z,24.11
2022-08-21T12:11:09.588Z,24.02
2022-08-21T12:13:42.461Z,24.12
2022-08-21T12:16:29.208Z,23.93
2022-08-21T12:19:29.214Z,23.83
2022-08-21T12:22:06.363Z,23.31
2022-08-21T12:24:48.942Z,23.59
2022-08-21T12:27:21.109Z,23.81
2022-08-21T12:29:55.151Z,23.71
2022-08-21T12:32:29.481Z,23.69
2022-08-21T12:35:03.638Z,23.89
2022-08-21T12:37:42.908Z,24.08
2022-08-21T12:40:23.579Z,24.02
2022-08-21T12:42:59.186Z,24.21
2022-08-21T12:45:38.033Z,24.46
2022-08-21T12:48:15.280Z,24.54
2022-08-21T12:50:48.989Z,24.89
2022-08-21T12:53:27.793Z,24.69
2022-08-21T12:56:00.692Z,24.92
2022-08-21T12:58:27.302Z,24.86
2022-08-21T13:01:02.787Z,24.64
2022-08-21T13:03:30.108Z,24.73
2022-08-21T13:05:57.564Z,24.79
2022-08-21T13:08:27.633Z,24.91
2022-08-21T13:11:13.597Z,25.19
2022-08-21T13:13:46.941Z,25.42
2022-08-21T13:16:25.276Z,25.06
2022-08-21T13:19:06.441Z,25.12
2022-08-21T13:21:36.289Z,25.09
2022-08-21T13:24:31.992Z,24.93
2022-08-21T13:26:58.464Z,24.95
2022-08-21T13:29:31.504Z,24.59
2022-08-21T13:32:02.837Z,24.61
2022-08-21T13:34:36.089Z,24.08
2022-08-21T13:37:08.548Z,24.57
2022-08-21T13:39:35.243Z,23.87
2022-08-21T13:42:06.104Z,23.67
2022-08-21T13:44:32.768Z,23.88
2022-08-21T13:47:03.424Z,24.05
2022-08-21T13:49:40.229Z,24.19
2022-08-21T13:52:18.828Z,24.05
2022-08-21T13:54:53.057Z,24.16
2022-08-21T13:57:25.770Z,24.41
2022-08-21T13:59:52.698Z,24.36
2022-08-21T14:02:23.812Z,24.12
2022-08-21T14:05:01.220Z,24.31
2022-08-21T14:07:34.405Z,24.29
2022-08-21T14:10:29.053Z,24.40
2022-08-21T14:13:05.002Z,24.39
2022-08-21T14:15:34.846Z,23.92
2022-08-21T14:18:20.662Z,24.00
2022-08-21T14:20:47.311Z,23.88
2022-08-21T14:23:26.259Z,24.00
2022-08-21T14:25:53.840Z,23.95
2022-08-21T14:28:52.900Z,24.04
2022-08-21T14:31:22.201Z,24.09
2022-08-21T14:33:49.048Z,23.86
2022-08-21T14:36:17.989Z,23.93
2022-08-21T14:38:45.649Z,24.07
2022-08-21T14:41:19.548Z,24.18
2022-08-21T14:43:57.749Z,24.22
2022-08-21T14:46:55.370Z,24.32
2022-08-21T14:49:27.734Z,24.24
2022-08-21T14:51:58.357Z,24.20
2022-08-21T14:54:28.130Z,24.14
2022-08-21T14:57:01.680Z,24.11
2022-08-21T14:59:28.581Z,24.07
2022-08-21T15:01:55.173Z,23.88
2022-08-21T15:04:21.724Z,23.89
2022-08-21T15:06:48.321Z,23.94
2022-08-21T15:09:14.879Z,24.18
2022-08-21T15:11:43.277Z,23.91
2022-08-21T15:14:15.262Z,23.87
2022-08-21T15:16:42.907Z,23.91
2022-08-21T15:19:09.514Z,23.54
2022-08-21T15:21:36.033Z,23.74
2022-08-21T15:24:02.768Z,23.80
2022-08-21T15:26:29.463Z,23.81
2022-08-21T15:28:55.978Z,23.90
2022-08-21T15:31:22.714Z,23.49
2022-08-21T15:33:51.003Z,23.69
2022-08-21T15:36:17.655Z,23.80
2022-08-21T15:38:45.517Z,23.29
2022-08-21T15:41:13.480Z,23.27
2022-08-21T15:43:50.132Z,23.37
2022-08-21T15:46:19.404Z,23.37
2022-08-21T15:48:47.227Z,23.27
2022-08-21T15:51:15.879Z,23.35
2022-08-21T15:53:43.040Z,23.12
2022-08-21T15:56:23.788Z,23.15
2022-08-21T15:58:58.749Z,22.97
2022-08-21T16:01:25.406Z,22.61
2022-08-21T16:03:54.905Z,22.89
2022-08-21T16:06:37.619Z,22.95
2022-08-21T16:09:08.863Z,22.85
2022-08-21T16:11:35.504Z,22.97
2022-08-21T16:14:02.132Z,22.97
2022-08-21T16:16:31.691Z,23.04
2022-08-21T16:18:58.482Z,22.87
2022-08-21T16:22:17.706Z,22.91
2022-08-21T16:24:44.262Z,22.76
2022-08-21T16:27:11.597Z,22.87
2022-08-21T16:29:40.004Z,22.72
2022-08-21T16:32:09.049Z,22.67
2022-08-21T16:34:36.748Z,22.63
2022-08-21T16:37:03.412Z,22.38
2022-08-21T16:39:30.208Z,22.32
2022-08-21T16:41:56.819Z,22.03
2022-08-21T16:44:23.545Z,21.95
2022-08-21T16:46:50.334Z,21.87
2022-08-21T16:49:17.172Z,21.71
2022-08-21T16:51:43.916Z,21.74
2022-08-21T16:54:11.581Z,21.85
2022-08-21T16:56:40.454Z,21.69
2022-08-21T16:59:08.124Z,21.73
2022-08-21T17:01:37.296Z,21.64
2022-08-21T17:04:05.067Z,21.67
2022-08-21T17:06:32.387Z,21.71
2022-08-21T17:08:59.655Z,21.79
2022-08-21T17:11:38.489Z,21.90
2022-08-21T17:14:12.574Z,21.77
2022-08-21T17:16:41.751Z,21.75
2022-08-21T17:19:08.558Z,21.64
2022-08-21T17:21:35.576Z,21.52
2022-08-21T17:24:02.204Z,21.60
2022-08-21T17:26:28.759Z,21.48
2022-08-21T17:28:55.415Z,21.41
2022-08-21T17:31:22.328Z,21.14
2022-08-21T17:33:53.191Z,21.10
2022-08-21T17:36:23.086Z,21.14
2022-08-21T17:38:50.255Z,21.09
2022-08-21T17:41:17.803Z,20.80
2022-08-21T17:43:44.910Z,20.95
2022-08-21T17:46:18.157Z,21.01
2022-08-21T17:48:47.446Z,20.96
2022-08-21T17:51:14.586Z,20.68
2022-08-21T17:53:41.238Z,20.81
2022-08-21T17:56:08.596Z,20.64
2022-08-21T17:58:35.334Z,20.66
2022-08-21T18:01:05.985Z,20.65
2022-08-21T18:03:37.289Z,20.62
2022-08-21T18:06:05.922Z,20.60
2022-08-21T18:08:32.952Z,20.46
2022-08-21T18:11:01.056Z,20.40
2022-08-21T18:13:32.538Z,20.21
2022-08-21T18:16:00.319Z,20.17
2022-08-21T18:18:32.862Z,20.35
2022-08-21T18:20:59.492Z,19.91
2022-08-21T18:23:44.080Z,19.66
2022-08-21T18:26:15.048Z,19.62
2022-08-21T18:28:41.944Z,19.75
2022-08-21T18:31:10.878Z,19.71
2022-08-21T18:33:38.569Z,19.78
2022-08-21T18:36:05.738Z,19.74
2022-08-21T18:38:33.050Z,19.78
2022-08-21T18:40:59.830Z,19.62
2022-08-21T18:43:26.968Z,19.43
2022-08-21T18:45:54.051Z,19.46
2022-08-21T18:48:20.809Z,19.58
2022-08-21T18:50:48.401Z,19.61
2022-08-21T18:53:27.325Z,19.44
2022-08-21T18:56:06.663Z,19.47
2022-08-21T18:58:35.320Z,19.52
2022-08-21T19:01:02.126Z,19.46
2022-08-21T19:03:29.464Z,19.41
2022-08-21T19:05:56.545Z,19.37
2022-08-21T19:08:27.664Z,19.27
2022-08-21T19:10:58.715Z,19.31
2022-08-21T19:13:28.773Z,19.29
2022-08-21T19:15:57.178Z,18.94
2022-08-21T19:18:28.257Z,19.05
2022-08-21T19:20:57.381Z,19.12
2022-08-21T19:23:28.933Z,19.14
2022-08-21T19:28:51.420Z,18.84
2022-08-21T19:34:16.908Z,18.88
2022-08-21T19:36:44.431Z,18.91
2022-08-21T19:39:12.742Z,18.77
2022-08-21T19:41:42.758Z,18.76
2022-08-21T19:44:16.313Z,18.69
2022-08-21T19:46:44.903Z,18.65
2022-08-21T19:49:15.329Z,18.64
2022-08-21T19:51:42.714Z,18.59
2022-08-21T19:54:23.345Z,18.50
2022-08-21T19:56:50.606Z,18.39
2022-08-21T19:59:24.879Z,18.36
2022-08-21T20:01:51.954Z,18.30
2022-08-21T20:04:19.471Z,18.29
2022-08-21T20:07:08.180Z,18.23
2022-08-21T20:09:37.266Z,18.15
2022-08-21T20:12:10.244Z,18.10
2022-08-21T20:14:42.677Z,18.06
2022-08-21T20:17:11.878Z,17.97
2022-08-21T20:19:41.084Z,17.92
2022-08-21T20:22:08.415Z,17.78
2022-08-21T20:24:35.942Z,17.67
2022-08-21T20:27:06.040Z,17.66
2022-08-21T20:32:22.269Z,17.61
2022-08-21T20:34:51.871Z,17.65
2022-08-21T20:37:35.960Z,17.69
2022-08-21T20:40:10.366Z,17.67
2022-08-21T20:42:39.075Z,17.55
2022-08-21T20:45:08.131Z,17.62
2022-08-21T20:47:36.440Z,17.67
2022-08-21T20:50:12.994Z,17.66
2022-08-21T20:52:41.341Z,17.64
2022-08-21T20:55:14.194Z,17.44
2022-08-21T20:58:23.002Z,17.53
2022-08-21T21:00:58.877Z,17.34
2022-08-21T21:03:51.191Z,17.24
2022-08-21T21:06:26.126Z,17.54
2022-08-21T21:08:58.209Z,17.57
2022-08-21T21:11:32.030Z,17.65
2022-08-21T21:14:27.085Z,17.67
2022-08-21T21:17:00.208Z,17.69
2022-08-21T21:19:48.851Z,17.47
2022-08-21T21:22:55.106Z,17.46
2022-08-21T21:25:24.898Z,17.51
2022-08-21T21:28:04.408Z,17.61
2022-08-21T21:30:36.505Z,17.45
2022-08-21T21:33:04.567Z,17.49
2022-08-21T21:35:38.843Z,17.47
2022-08-21T21:38:20.659Z,17.69
2022-08-21T21:41:10.857Z,17.84
2022-08-21T21:44:08.521Z,17.88
2022-08-21T21:46:52.151Z,17.89
2022-08-21T21:49:40.749Z,18.00
2022-08-21T21:52:28.749Z,17.99
2022-08-21T21:55:39.767Z,18.05
2022-08-21T21:58:18.240Z,18.10
2022-08-21T22:00:52.519Z,18.08
2022-08-21T22:03:22.923Z,18.06
2022-08-21T22:06:00.395Z,18.11
2022-08-21T22:08:50.590Z,18.08
2022-08-21T22:11:45.094Z,18.12
2022-08-21T22:14:22.797Z,18.03
2022-08-21T22:16:51.264Z,18.13
2022-08-21T22:19:29.444Z,18.03
2022-08-21T22:22:06.032Z,18.01
2022-08-21T22:24:40.407Z,17.95
2022-08-21T22:27:12.692Z,17.98
2022-08-21T22:30:00.054Z,18.06
2022-08-21T22:32:32.689Z,18.11
2022-08-21T22:35:25.961Z,18.12
2022-08-21T22:37:58.693Z,18.06
2022-08-21T22:40:29.466Z,18.12
2022-08-21T22:43:02.545Z,18.18
2022-08-21T22:45:30.976Z,18.16
2022-08-21T22:48:05.890Z,18.21
2022-08-21T22:50:41.351Z,18.19
2022-08-21T22:53:09.353Z,18.11
2022-08-21T22:55:44.057Z,18.06
2022-08-21T22:58:26.845Z,18.04
2022-08-21T23:01:22.317Z,17.98
2022-08-21T23:03:53.836Z,17.93
2022-08-21T23:07:06.040Z,17.92
2022-08-21T23:09:47.186Z,17.90
2022-08-21T23:15:20.787Z,17.86
2022-08-21T23:18:01.003Z,17.87
2022-08-21T23:20:40.211Z,17.86
2022-08-21T23:23:24.226Z,17.88
2022-08-21T23:26:17.386Z,17.84
2022-08-21T23:29:03.049Z,17.82
2022-08-21T23:32:13.419Z,17.82
2022-08-21T23:35:15.003Z,17.81
2022-08-21T23:38:09.428Z,17.80
2022-08-21T23:40:58.660Z,17.76
2022-08-21T23:43:43.742Z,17.77
2022-08-21T23:46:32.386Z,17.75
2022-08-21T23:49:17.734Z,17.74
2022-08-21T23:52:22.199Z,17.66
2022-08-21T23:54:52.625Z,17.61
2022-08-21T23:57:41.072Z,17.56
